Weatherford, OK

11:51 PM CDT on July 23, 2014 (GMT -0500)
Weatherford (KOJA) Elev 1604 ft | 35.54 °N, 98.67 °W | Change Station
Active Advisory: Heat Advisory

Current weather conditions updated 16 minutes ago

Clear
Clear
81 °F
Feels Like 86 °F
N
7
Wind Variable Wind from East

Tomorrow is forecast to be nearly the same temperature as today.

Today
High -- | Low -- °F
--% Chance of Precip.
Yesterday
High -- | Low -- °F
Precip. -- in
6:36 AM 8:45 PM
Waning Crescent, 7% visible
Pressure 30.13 in
Visibility 7.0 miles
Clouds Clear
Heat Index 86 °F
Dew Point 75 °F
Humidity 84%
Rainfall 0.00 in
Snow Depth Not available.
UV 0 out of 12
Pollen 4.80 out of 12
Air Quality Not available.
Flu Activity Not available.
METAR KOJA 240435Z AUTO 09006KT 7SM CLR 27/24 A3013 RMK AO2

More Conditions Fewer Conditions

Pressure 30.13 in
Visibility 7.0 miles
Clouds Clear
Heat Index 86 °F
Dew Point 75 °F
Humidity 84%
Rainfall 0.00 in
Snow Depth Not available.
UV 0 out of 12
Pollen 4.80 out of 12
Air Quality Not available.
Flu Activity Not available.
METAR KOJA 240435Z AUTO 09006KT 7SM CLR 27/24 A3013 RMK AO2

More Conditions Fewer Conditions

10-Day Weather Forecast

Almanac

Astronomy

Jul. 23, 2014 Rise Set
Actual Time 6:36 AM CDT 8:45 PM CDT
Civil Twilight 6:07 AM CDT 9:14 PM CDT
Nautical Twilight 5:32 AM CDT 9:49 PM CDT
Astronomical Twilight 4:54 AM CDT 10:27 PM CDT
Moon 3:55 AM CDT (7/23) 6:16 PM CDT (7/23)
Length of Visible Light 15h 06m
Length of Day
14h 09m
Tomorrow will be 1m 26s shorter.
Waning Crescent, 7% of the Moon is Illuminated
Jul 24
Waning Crescent
Jul 26
New
Aug 3
First Quarter
Aug 10
Full
Aug 17
Last Quarter

Yesterday's Extremes

State Highs State Lows

Community

WunderPhotos

Upload Photos

1,736,912 photos uploaded!

Nearby

Snow Depth

Station Depth Elevation
No new snow has been reported.

Earthquake Activity

City Distance Mag. Time & Date
Harper, Kansas 124 miles 3.0 7:24 PM CDT
2014-07-19
Spencer, Oklahoma 73 miles 2.7 4:56 PM CDT
2014-07-18
Helena, Oklahoma 83 miles 3.2 8:41 AM CDT
2014-07-18
Guthrie, Oklahoma 80 miles 2.9 8:59 PM CDT
2014-07-17
Minimum magnitude displayed is 2.5.

Coastal Water Temperatures

Place Temperature
No Stations Reporting

Nearby Weather Stations

Station Location Temp. Heat Index Dew Point Humidity Wind Precip. Elev Updated Type
Custer City, Custer City, OK 81.1 °F 88 °F 76 °F 85% East  at  0.9 mph 0.00 in / hr 1775 ft 11:50 PM CDT Rapid Fire
APRSWXNET Fort Cobb OK , Albert, OK 82 °F 88 °F 74 °F 76% ESE  at  8 mph 0.00 in / hr 1443 ft 11:18 PM CDT MADIS

Show More Stations Show Fewer Stations